createdAt,value
2018-02-10T00:01:41.136Z,34.50
2018-02-10T00:04:08.672Z,34.00
2018-02-10T00:06:36.156Z,33.00
2018-02-10T00:09:03.665Z,35.00
2018-02-10T00:11:31.207Z,34.00
2018-02-10T00:13:58.733Z,34.90
2018-02-10T00:16:26.227Z,32.77
2018-02-10T00:18:54.545Z,33.60
2018-02-10T00:21:22.091Z,34.83
2018-02-10T00:23:49.607Z,33.47
2018-02-10T00:26:17.162Z,33.90
2018-02-10T00:28:44.687Z,37.00
2018-02-10T00:31:12.224Z,34.67
2018-02-10T00:33:40.511Z,38.07
2018-02-10T00:36:08.009Z,39.57
2018-02-10T00:38:35.512Z,36.20
2018-02-10T00:41:03.826Z,34.67
2018-02-10T00:43:31.323Z,36.23
2018-02-10T00:45:58.890Z,37.80
2018-02-10T00:48:26.405Z,33.50
2018-02-10T00:50:53.938Z,35.40
2018-02-10T00:53:21.449Z,39.80
2018-02-10T00:55:48.972Z,37.37
2018-02-10T00:58:16.479Z,37.17
2018-02-10T01:00:44.005Z,40.10
2018-02-10T01:03:11.516Z,38.60
2018-02-10T01:05:39.131Z,35.50
2018-02-10T01:08:06.605Z,37.70
2018-02-10T01:10:34.437Z,38.23
2018-02-10T01:13:01.954Z,36.57
2018-02-10T01:15:29.472Z,39.93
2018-02-10T01:17:56.999Z,36.27
2018-02-10T01:20:25.300Z,30.90
2018-02-10T01:22:52.791Z,38.53
2018-02-10T01:25:20.314Z,36.57
2018-02-10T01:27:47.876Z,38.50
2018-02-10T01:30:15.368Z,38.43
2018-02-10T01:32:42.880Z,39.93
2018-02-10T01:35:10.394Z,34.87
2018-02-10T01:37:37.915Z,38.67
2018-02-10T01:40:05.525Z,37.23
2018-02-10T01:42:33.022Z,39.00
2018-02-10T01:45:00.511Z,38.23
2018-02-10T01:47:28.030Z,40.47
2018-02-10T01:50:08.183Z,37.03
2018-02-10T01:52:35.689Z,38.60
2018-02-10T01:55:03.185Z,37.70
2018-02-10T01:57:30.725Z,38.13
2018-02-10T01:59:58.235Z,36.77
2018-02-10T02:02:25.836Z,42.13
2018-02-10T02:04:53.373Z,37.47
2018-02-10T02:07:20.915Z,40.77
2018-02-10T02:09:49.208Z,40.93
2018-02-10T02:12:16.723Z,40.03
2018-02-10T02:14:44.214Z,43.13
2018-02-10T02:17:12.494Z,41.70
2018-02-10T02:19:40.020Z,38.77
2018-02-10T02:22:07.527Z,34.60
2018-02-10T02:24:35.060Z,38.90
2018-02-10T02:27:02.565Z,36.50
2018-02-10T02:29:30.085Z,40.73
2018-02-10T02:31:57.597Z,36.27
2018-02-10T02:34:25.113Z,39.73
2018-02-10T02:36:53.388Z,35.90
2018-02-10T02:39:20.894Z,34.47
2018-02-10T02:41:48.409Z,39.17
2018-02-10T02:44:16.682Z,37.90
2018-02-10T02:46:44.227Z,35.57
2018-02-10T02:49:11.763Z,34.77
2018-02-10T02:51:39.296Z,37.40
2018-02-10T02:54:06.841Z,38.70
2018-02-10T02:56:34.415Z,35.77
2018-02-10T02:59:01.925Z,36.47
2018-02-10T03:01:29.455Z,34.23
2018-02-10T03:03:56.988Z,37.07
2018-02-10T03:06:24.518Z,32.50
2018-02-10T03:08:52.029Z,32.57
2018-02-10T03:11:19.552Z,35.33
2018-02-10T03:13:47.079Z,31.67
2018-02-10T03:16:14.587Z,30.73
2018-02-10T03:18:42.108Z,30.27
2018-02-10T03:21:09.613Z,31.77
2018-02-10T03:23:37.129Z,31.27
2018-02-10T03:26:04.640Z,32.03
2018-02-10T03:28:32.170Z,29.47
2018-02-10T03:31:00.364Z,32.00
2018-02-10T03:33:28.656Z,31.50
2018-02-10T03:35:56.168Z,29.57
2018-02-10T03:38:23.698Z,29.00
2018-02-10T03:40:51.212Z,32.30
2018-02-10T03:43:19.473Z,30.27
2018-02-10T03:45:46.974Z,29.77
2018-02-10T03:48:14.488Z,31.47
2018-02-10T03:50:42.003Z,29.67
2018-02-10T03:53:09.521Z,30.70
2018-02-10T03:55:37.042Z,28.57
2018-02-10T03:58:04.537Z,30.07
2018-02-10T04:00:32.794Z,29.97
2018-02-10T04:03:00.322Z,30.33
2018-02-10T04:05:27.809Z,25.73
2018-02-10T04:07:55.295Z,28.37
2018-02-10T04:10:23.567Z,27.77
2018-02-10T04:12:51.056Z,28.60
2018-02-10T04:15:18.588Z,27.47
2018-02-10T04:17:46.116Z,26.83
2018-02-10T04:20:13.624Z,24.93
2018-02-10T04:22:41.172Z,28.37
2018-02-10T04:25:08.708Z,30.23
2018-02-10T04:27:36.216Z,26.70
2018-02-10T04:30:03.737Z,25.13
2018-02-10T04:32:31.305Z,28.37
2018-02-10T04:34:58.807Z,26.50
2018-02-10T04:37:26.286Z,26.90
2018-02-10T04:39:53.783Z,28.73
2018-02-10T04:42:21.268Z,28.23
2018-02-10T04:44:49.540Z,32.20
2018-02-10T04:47:17.947Z,28.57
2018-02-10T04:49:45.462Z,33.00
2018-02-10T04:52:13.007Z,29.43
2018-02-10T04:54:40.493Z,30.47
2018-02-10T04:57:08.763Z,32.27
2018-02-10T04:59:37.043Z,33.00
2018-02-10T05:02:04.572Z,30.43
2018-02-10T05:04:32.139Z,32.20
2018-02-10T05:06:59.663Z,34.23
2018-02-10T05:09:27.232Z,34.13
2018-02-10T05:11:54.753Z,32.23
2018-02-10T05:14:23.020Z,32.67
2018-02-10T05:16:50.540Z,32.67
2018-02-10T05:19:18.032Z,33.17
2018-02-10T05:21:45.525Z,31.57
2018-02-10T05:24:13.794Z,35.30
2018-02-10T05:26:41.274Z,33.03
2018-02-10T05:29:08.770Z,35.40
2018-02-10T05:31:36.310Z,34.90
2018-02-10T05:34:03.893Z,38.30
2018-02-10T05:36:31.424Z,32.63
2018-02-10T05:38:58.928Z,34.33
2018-02-10T05:41:26.436Z,35.83
2018-02-10T05:43:53.927Z,30.43
2018-02-10T05:46:21.439Z,37.63
2018-02-10T05:48:48.946Z,36.30
2018-02-10T05:51:16.463Z,35.63
2018-02-10T05:53:43.954Z,34.53
2018-02-10T05:56:11.454Z,37.73
2018-02-10T05:58:38.952Z,34.77
2018-02-10T06:01:07.231Z,39.27
2018-02-10T06:03:34.724Z,34.90
2018-02-10T06:06:02.219Z,32.97
2018-02-10T06:08:29.743Z,35.27
2018-02-10T06:10:57.259Z,36.13
2018-02-10T06:13:24.804Z,34.23
2018-02-10T06:15:52.327Z,34.07
2018-02-10T06:18:19.841Z,35.20
2018-02-10T06:20:47.355Z,35.00
2018-02-10T06:23:14.864Z,34.03
2018-02-10T06:25:42.375Z,36.93
2018-02-10T06:28:09.862Z,35.37
2018-02-10T06:30:37.361Z,34.27
2018-02-10T06:33:04.887Z,32.90
2018-02-10T06:35:33.154Z,37.10
2018-02-10T06:38:00.649Z,34.03
2018-02-10T06:40:28.170Z,33.87
2018-02-10T06:42:55.701Z,36.10
2018-02-10T06:45:23.225Z,33.67
2018-02-10T06:47:50.806Z,34.50
2018-02-10T06:50:18.307Z,35.07
2018-02-10T06:52:45.790Z,34.63
2018-02-10T06:55:14.072Z,37.23
2018-02-10T06:57:41.565Z,37.57
2018-02-10T07:00:09.071Z,35.73
2018-02-10T07:02:37.319Z,36.20
2018-02-10T07:05:04.829Z,34.57
2018-02-10T07:07:32.341Z,33.17
2018-02-10T07:09:59.830Z,35.43
2018-02-10T07:12:28.101Z,36.40
2018-02-10T07:14:55.593Z,33.50
2018-02-10T07:17:23.091Z,35.27
2018-02-10T07:19:50.638Z,34.83
2018-02-10T07:22:18.142Z,35.43
2018-02-10T07:24:45.911Z,33.10
2018-02-10T07:27:13.416Z,32.17
2018-02-10T07:29:40.932Z,35.40
2018-02-10T07:32:09.184Z,35.37
2018-02-10T07:34:36.711Z,31.13
2018-02-10T07:37:04.226Z,32.93
2018-02-10T07:39:31.717Z,34.33
2018-02-10T07:41:59.237Z,32.40
2018-02-10T07:44:26.739Z,32.43
2018-02-10T07:46:54.300Z,32.50
2018-02-10T07:49:21.841Z,29.13
2018-02-10T07:51:49.576Z,30.37
2018-02-10T07:54:17.078Z,29.73
2018-02-10T07:56:44.596Z,30.43
2018-02-10T07:59:12.087Z,27.43
2018-02-10T08:01:40.351Z,27.80
2018-02-10T08:04:07.849Z,27.40
2018-02-10T08:06:35.340Z,26.90
2018-02-10T08:09:02.846Z,28.43
2018-02-10T08:11:30.336Z,27.03
2018-02-10T08:13:57.858Z,26.60
2018-02-10T08:16:25.374Z,24.57
2018-02-10T08:18:52.865Z,25.27
2018-02-10T08:21:20.364Z,26.23
2018-02-10T08:23:47.890Z,23.50
2018-02-10T08:26:16.172Z,22.83
2018-02-10T08:28:44.049Z,24.03
2018-02-10T08:31:11.670Z,26.73
2018-02-10T08:33:39.236Z,25.47
2018-02-10T08:36:06.791Z,25.97
2018-02-10T08:38:34.309Z,25.43
2018-02-10T08:41:01.907Z,24.40
2018-02-10T08:43:29.434Z,29.93
2018-02-10T08:45:56.950Z,27.10
2018-02-10T08:48:24.490Z,26.23
2018-02-10T08:50:52.146Z,20.83
2018-02-10T08:53:19.665Z,27.93
2018-02-10T08:55:47.282Z,26.33
2018-02-10T08:58:14.871Z,27.77
2018-02-10T09:00:42.366Z,27.67
2018-02-10T09:03:09.894Z,27.73
2018-02-10T09:05:37.391Z,25.83
2018-02-10T09:08:04.952Z,27.33
2018-02-10T09:10:32.460Z,29.80
2018-02-10T09:13:00.743Z,28.77
2018-02-10T09:15:29.021Z,28.83
2018-02-10T09:17:56.520Z,28.57
2018-02-10T09:20:24.095Z,29.00
2018-02-10T09:22:52.349Z,28.30
2018-02-10T09:25:19.852Z,27.47
2018-02-10T09:27:47.360Z,29.00
2018-02-10T09:30:14.964Z,30.33
2018-02-10T09:32:42.472Z,28.90
2018-02-10T09:35:09.991Z,28.90
2018-02-10T09:37:37.513Z,25.57
2018-02-10T09:40:05.023Z,32.97
2018-02-10T09:42:32.517Z,31.80
2018-02-10T09:45:00.041Z,32.03
2018-02-10T09:47:27.552Z,30.10
2018-02-10T09:49:55.060Z,28.73
2018-02-10T09:52:22.552Z,26.73
2018-02-10T09:54:50.851Z,22.37
2018-02-10T09:57:18.339Z,29.07
2018-02-10T09:59:45.827Z,26.40
2018-02-10T10:02:14.111Z,27.07
2018-02-10T10:04:41.618Z,29.70
2018-02-10T10:07:09.124Z,31.30
2018-02-10T10:09:36.642Z,30.27
2018-02-10T10:12:04.184Z,32.63
2018-02-10T10:14:31.688Z,29.93
2018-02-10T10:16:59.193Z,29.20
2018-02-10T10:19:26.706Z,28.67
2018-02-10T10:21:54.197Z,27.93
2018-02-10T10:24:22.473Z,28.93
2018-02-10T10:26:50.014Z,27.70
2018-02-10T10:29:17.507Z,26.47
2018-02-10T10:31:45.002Z,25.70
2018-02-10T10:34:13.041Z,25.73
2018-02-10T10:36:40.541Z,25.03
2018-02-10T10:39:08.089Z,23.97
2018-02-10T10:41:35.653Z,24.77
2018-02-10T10:44:03.138Z,21.57
2018-02-10T10:46:30.630Z,21.63
2018-02-10T10:48:58.896Z,22.03
2018-02-10T10:51:26.392Z,19.97
2018-02-10T10:53:53.915Z,20.43
2018-02-10T10:56:22.173Z,20.57
2018-02-10T10:58:49.685Z,18.70
2018-02-10T11:01:17.207Z,19.50
2018-02-10T11:03:45.468Z,17.47
2018-02-10T11:06:12.966Z,18.43
2018-02-10T11:08:40.494Z,15.97
2018-02-10T11:11:08.006Z,15.30
2018-02-10T11:13:35.548Z,13.57
2018-02-10T11:16:03.039Z,12.40
2018-02-10T11:18:30.545Z,12.33
2018-02-10T11:20:58.058Z,11.00
2018-02-10T11:23:25.545Z,8.50
2018-02-10T11:25:53.050Z,7.50
2018-02-10T11:28:20.555Z,7.37
2018-02-10T11:30:48.046Z,7.80
2018-02-10T11:33:16.328Z,6.93
2018-02-10T11:35:44.583Z,6.97
2018-02-10T11:38:12.071Z,7.00
2018-02-10T11:40:39.673Z,6.87
2018-02-10T11:43:07.175Z,6.43
2018-02-10T11:45:34.677Z,6.30
2018-02-10T11:48:02.173Z,6.23
2018-02-10T11:50:29.680Z,6.20
2018-02-10T11:52:57.178Z,6.13
2018-02-10T11:55:24.675Z,6.27
2018-02-10T11:57:52.177Z,6.30
2018-02-10T12:00:19.683Z,6.33
2018-02-10T12:02:47.250Z,5.63
2018-02-10T12:05:14.722Z,6.33
2018-02-10T12:07:42.212Z,5.87
2018-02-10T12:10:09.719Z,5.87
2018-02-10T12:12:37.222Z,5.50
2018-02-10T12:15:04.759Z,5.57
2018-02-10T12:17:33.004Z,5.63
2018-02-10T12:20:00.543Z,5.10
2018-02-10T12:22:28.069Z,5.30
2018-02-10T12:24:56.319Z,5.17
2018-02-10T12:27:23.839Z,5.10
2018-02-10T12:29:51.359Z,5.03
2018-02-10T12:32:18.839Z,5.10
2018-02-10T12:34:46.380Z,4.50
2018-02-10T12:37:13.875Z,4.63
2018-02-10T12:39:41.388Z,5.20
2018-02-10T12:42:09.667Z,5.30
2018-02-10T12:44:37.151Z,5.50
2018-02-10T12:47:04.661Z,5.07
2018-02-10T12:49:32.158Z,5.57
2018-02-10T12:52:00.436Z,5.73
2018-02-10T12:54:27.921Z,5.10
2018-02-10T12:56:55.417Z,5.37
2018-02-10T12:59:22.924Z,5.10
2018-02-10T13:01:51.180Z,5.30
2018-02-10T13:04:18.674Z,5.23
2018-02-10T13:06:46.179Z,4.90
2018-02-10T13:09:13.681Z,5.00
2018-02-10T13:11:41.194Z,4.00
2018-02-10T13:14:08.679Z,4.93
2018-02-10T13:16:36.978Z,4.43
2018-02-10T13:19:04.476Z,4.23
2018-02-10T13:21:31.966Z,4.70
2018-02-10T13:23:59.480Z,4.07
2018-02-10T13:26:26.984Z,4.40
2018-02-10T13:28:54.477Z,4.20
2018-02-10T13:31:21.983Z,4.40
2018-02-10T13:33:49.481Z,5.63
2018-02-10T13:36:17.738Z,4.90
2018-02-10T13:38:45.260Z,5.63
2018-02-10T13:41:12.769Z,5.30
2018-02-10T13:43:41.024Z,5.47
2018-02-10T13:46:08.507Z,5.23
2018-02-10T13:48:39.965Z,6.00
2018-02-10T13:51:07.452Z,5.67
2018-02-10T13:53:34.964Z,4.93
2018-02-10T13:56:02.477Z,5.60
2018-02-10T13:58:29.966Z,5.50
2018-02-10T14:00:57.447Z,5.27
2018-02-10T14:03:24.942Z,5.47
2018-02-10T14:05:52.451Z,5.33
2018-02-10T14:08:19.930Z,5.50
2018-02-10T14:10:47.437Z,6.10
2018-02-10T14:13:14.960Z,5.40
2018-02-10T14:15:43.230Z,4.83
2018-02-10T14:18:10.766Z,4.93
2018-02-10T14:20:38.268Z,5.30
2018-02-10T14:23:06.524Z,4.70
2018-02-10T14:25:34.009Z,4.67
2018-02-10T14:28:01.638Z,5.13
2018-02-10T14:30:29.127Z,4.63
2018-02-10T14:32:56.628Z,4.30
2018-02-10T14:35:24.168Z,4.93
2018-02-10T14:37:51.694Z,4.30
2018-02-10T14:40:20.025Z,4.10
2018-02-10T14:42:47.519Z,3.47
2018-02-10T14:45:14.996Z,3.50
2018-02-10T14:47:43.273Z,3.60
2018-02-10T14:50:10.928Z,3.73
2018-02-10T14:52:38.528Z,3.23
2018-02-10T14:55:06.366Z,3.33
2018-02-10T14:57:34.846Z,3.10
2018-02-10T15:00:03.304Z,3.47
2018-02-10T15:02:31.391Z,2.90
2018-02-10T15:04:59.046Z,3.00
2018-02-10T15:07:26.731Z,3.60
2018-02-10T15:09:55.276Z,4.10
2018-02-10T15:12:23.193Z,3.60
2018-02-10T15:14:51.675Z,3.20
2018-02-10T15:17:19.395Z,3.53
2018-02-10T15:19:46.891Z,3.40
2018-02-10T15:22:15.267Z,3.87
2018-02-10T15:24:43.112Z,3.57
2018-02-10T15:27:10.877Z,3.53
2018-02-10T15:29:50.336Z,3.70
2018-02-10T15:32:29.687Z,3.93
2018-02-10T15:34:59.531Z,3.87
2018-02-10T15:37:27.941Z,3.77
2018-02-10T15:39:55.817Z,4.23
2018-02-10T15:42:24.070Z,4.20
2018-02-10T15:44:51.800Z,3.83
2018-02-10T15:47:20.207Z,3.93
2018-02-10T15:49:49.731Z,4.00
2018-02-10T15:52:17.403Z,3.80
2018-02-10T15:54:45.658Z,3.80
2018-02-10T15:57:13.309Z,4.67
2018-02-10T15:59:40.993Z,4.10
2018-02-10T16:02:08.801Z,3.83
2018-02-10T16:04:36.302Z,4.30
2018-02-10T16:07:03.815Z,4.07
2018-02-10T16:09:31.368Z,4.20
2018-02-10T16:11:59.137Z,4.43
2018-02-10T16:14:26.957Z,4.40
2018-02-10T16:16:54.794Z,4.53
2018-02-10T16:19:22.692Z,4.37
2018-02-10T16:21:50.282Z,4.43
2018-02-10T16:24:18.106Z,4.73
2018-02-10T16:26:45.808Z,4.20
2018-02-10T16:29:15.336Z,4.23
2018-02-10T16:31:42.958Z,5.53
2018-02-10T16:34:10.760Z,5.00
2018-02-10T16:36:38.578Z,5.50
2018-02-10T16:39:07.288Z,4.97
2018-02-10T16:41:35.361Z,5.23
2018-02-10T16:44:03.159Z,5.27
2018-02-10T16:46:30.959Z,6.07
2018-02-10T16:48:59.252Z,5.80
2018-02-10T16:54:18.161Z,5.53
2018-02-10T16:56:45.828Z,5.00
2018-02-10T16:59:13.545Z,6.03
2018-02-10T17:01:41.831Z,5.43
2018-02-10T17:04:11.406Z,5.63
2018-02-10T17:06:39.359Z,5.37
2018-02-10T17:09:07.094Z,5.30
2018-02-10T17:11:34.899Z,5.70
2018-02-10T17:14:02.675Z,5.77
2018-02-10T17:16:30.369Z,5.90
2018-02-10T17:18:58.327Z,5.70
2018-02-10T17:21:26.811Z,5.03
2018-02-10T17:23:54.408Z,5.63
2018-02-10T17:26:22.251Z,5.30
2018-02-10T17:28:50.096Z,5.27
2018-02-10T17:31:17.809Z,6.60
2018-02-10T17:33:45.509Z,6.50
2018-02-10T17:36:13.260Z,6.03
2018-02-10T17:38:41.015Z,5.40
2018-02-10T17:41:08.576Z,5.90
2018-02-10T17:43:36.651Z,5.73
2018-02-10T17:46:04.451Z,5.27
2018-02-10T17:48:32.293Z,6.10
2018-02-10T17:50:59.909Z,5.60
2018-02-10T17:53:28.211Z,4.90
2018-02-10T17:55:56.909Z,6.23
2018-02-10T17:58:24.582Z,4.80
2018-02-10T18:00:52.521Z,4.50
2018-02-10T18:03:20.102Z,4.80
2018-02-10T18:05:47.963Z,4.43
2018-02-10T18:08:15.482Z,4.40
2018-02-10T18:10:43.087Z,4.50
2018-02-10T18:13:10.941Z,4.63
2018-02-10T18:15:38.613Z,4.17
2018-02-10T18:18:06.351Z,4.83
2018-02-10T18:20:34.266Z,4.10
2018-02-10T18:23:02.045Z,4.37
2018-02-10T18:25:29.705Z,4.50
2018-02-10T18:27:57.599Z,3.73
2018-02-10T18:30:25.826Z,4.33
2018-02-10T18:32:53.523Z,4.60
2018-02-10T18:35:21.203Z,4.50
2018-02-10T18:37:49.154Z,5.17
2018-02-10T18:40:16.869Z,4.03
2018-02-10T18:42:45.476Z,4.40
2018-02-10T18:45:13.339Z,4.10
2018-02-10T18:47:41.324Z,4.60
2018-02-10T18:50:08.890Z,4.60
2018-02-10T18:52:36.594Z,4.10
2018-02-10T18:55:04.362Z,4.43
2018-02-10T18:57:31.931Z,4.37
2018-02-10T19:00:00.683Z,4.20
2018-02-10T19:02:28.420Z,5.10
2018-02-10T19:04:56.023Z,4.30
2018-02-10T19:07:23.725Z,3.97
2018-02-10T19:09:51.664Z,3.60
2018-02-10T19:12:19.356Z,3.93
2018-02-10T19:14:47.280Z,4.20
2018-02-10T19:17:14.897Z,4.17
2018-02-10T19:19:42.780Z,4.20
2018-02-10T19:22:10.487Z,4.27
2018-02-10T19:24:38.143Z,4.40
2018-02-10T19:27:05.761Z,3.93
2018-02-10T19:29:33.619Z,5.63
2018-02-10T19:32:01.614Z,4.07
2018-02-10T19:34:29.178Z,3.80
2018-02-10T19:36:56.950Z,4.30
2018-02-10T19:39:24.861Z,7.30
2018-02-10T19:41:52.527Z,5.13
2018-02-10T19:44:20.492Z,5.87
2018-02-10T19:46:48.196Z,4.73
2018-02-10T19:49:16.798Z,7.03
2018-02-10T19:51:44.641Z,6.20
2018-02-10T19:54:12.332Z,5.27
2018-02-10T19:56:40.202Z,5.47
2018-02-10T19:59:07.819Z,4.87
2018-02-10T20:01:35.409Z,4.60
2018-02-10T20:04:04.087Z,4.70
2018-02-10T20:06:31.871Z,4.50
2018-02-10T20:08:59.648Z,4.50
2018-02-10T20:11:27.615Z,3.97
2018-02-10T20:13:55.234Z,4.33
2018-02-10T20:16:22.912Z,4.70
2018-02-10T20:18:51.587Z,4.23
2018-02-10T20:21:19.501Z,4.70
2018-02-10T20:23:47.165Z,4.00
2018-02-10T20:26:14.852Z,4.30
2018-02-10T20:28:43.654Z,3.70
2018-02-10T20:31:11.903Z,3.90
2018-02-10T20:33:39.711Z,4.47
2018-02-10T20:36:08.139Z,4.37
2018-02-10T20:38:36.487Z,3.90
2018-02-10T20:41:05.199Z,3.97
2018-02-10T20:43:32.803Z,3.80
2018-02-10T20:46:00.695Z,3.77
2018-02-10T20:48:29.310Z,4.10
2018-02-10T20:50:57.033Z,4.37
2018-02-10T20:53:24.812Z,4.40
2018-02-10T20:55:52.718Z,4.10
2018-02-10T20:58:20.821Z,3.90
2018-02-10T21:00:48.454Z,4.10
2018-02-10T21:03:16.126Z,4.00
2018-02-10T21:05:44.087Z,4.17
2018-02-10T21:08:12.679Z,4.07
2018-02-10T21:10:40.662Z,4.30
2018-02-10T21:13:08.437Z,4.03
2018-02-10T21:15:36.381Z,4.47
2018-02-10T21:18:04.247Z,4.70
2018-02-10T21:20:32.102Z,4.20
2018-02-10T21:22:59.893Z,4.73
2018-02-10T21:25:27.965Z,4.50
2018-02-10T21:27:55.819Z,4.13
2018-02-10T21:30:23.936Z,3.87
2018-02-10T21:32:51.786Z,3.90
2018-02-10T21:35:19.492Z,4.27
2018-02-10T21:37:48.298Z,4.57
2018-02-10T21:40:16.173Z,4.47
2018-02-10T21:42:44.728Z,4.60
2018-02-10T21:45:12.551Z,4.30
2018-02-10T21:47:41.005Z,4.33
2018-02-10T21:50:08.962Z,4.17
2018-02-10T21:52:36.834Z,4.23
2018-02-10T21:55:05.443Z,4.37
2018-02-10T21:57:33.134Z,4.20
2018-02-10T22:00:00.963Z,3.43
2018-02-10T22:02:28.818Z,3.63
2018-02-10T22:04:57.548Z,4.60
2018-02-10T22:07:25.236Z,4.53
2018-02-10T22:09:53.096Z,4.47
2018-02-10T22:12:21.161Z,4.60
2018-02-10T22:14:49.087Z,4.63
2018-02-10T22:17:16.925Z,3.90
2018-02-10T22:19:44.785Z,4.70
2018-02-10T22:22:12.596Z,5.00
2018-02-10T22:24:40.489Z,4.70
2018-02-10T22:27:08.467Z,4.33
2018-02-10T22:29:36.334Z,4.63
2018-02-10T22:32:03.849Z,4.23
2018-02-10T22:34:32.120Z,4.80
2018-02-10T22:36:59.644Z,4.50
2018-02-10T22:39:27.264Z,4.70
2018-02-10T22:41:54.811Z,4.80
2018-02-10T22:44:22.317Z,4.80
2018-02-10T22:46:49.831Z,4.70
2018-02-10T22:49:18.131Z,5.67
2018-02-10T22:51:45.636Z,5.20
2018-02-10T22:54:13.168Z,5.90
2018-02-10T22:56:40.669Z,5.87
2018-02-10T22:59:08.194Z,5.60
2018-02-10T23:01:35.750Z,5.90
2018-02-10T23:04:03.277Z,6.37
2018-02-10T23:06:30.795Z,5.83
2018-02-10T23:08:58.394Z,5.63
2018-02-10T23:11:25.897Z,5.93
2018-02-10T23:13:53.441Z,5.17
2018-02-10T23:16:20.924Z,4.83
2018-02-10T23:18:48.426Z,4.70
2018-02-10T23:21:15.956Z,4.90
2018-02-10T23:23:43.462Z,4.60
2018-02-10T23:26:10.966Z,4.70
2018-02-10T23:28:38.483Z,5.03
2018-02-10T23:31:06.770Z,4.70
2018-02-10T23:33:34.381Z,5.13
2018-02-10T23:36:01.878Z,5.87
2018-02-10T23:38:29.449Z,5.77
2018-02-10T23:40:56.956Z,5.17
2018-02-10T23:43:24.483Z,6.00
2018-02-10T23:45:52.024Z,5.60
2018-02-10T23:48:19.538Z,5.67
2018-02-10T23:50:47.054Z,5.80
2018-02-10T23:53:14.645Z,5.43
2018-02-10T23:55:42.169Z,5.90
2018-02-10T23:58:09.704Z,4.80
